sensor_id;sensor_type;location;lat;lon;timestamp;P1;durP1;ratioP1;P2;durP2;ratioP2
79361;SDS011;68830;47.566;19.012;2023-12-28T00:00:26;19.85;;;12.15;;
79361;SDS011;68830;47.566;19.012;2023-12-28T00:03:29;12.68;;;10.07;;
79361;SDS011;68830;47.566;19.012;2023-12-28T00:06:31;15.57;;;9.40;;
79361;SDS011;68830;47.566;19.012;2023-12-28T00:09:33;13.43;;;8.15;;
79361;SDS011;68830;47.566;19.012;2023-12-28T00:12:35;12.88;;;7.32;;
79361;SDS011;68830;47.566;19.012;2023-12-28T00:15:37;12.60;;;8.68;;
79361;SDS011;68830;47.566;19.012;2023-12-28T00:18:41;13.38;;;8.93;;
79361;SDS011;68830;47.566;19.012;2023-12-28T00:21:43;17.38;;;9.32;;
79361;SDS011;68830;47.566;19.012;2023-12-28T00:24:46;13.70;;;8.80;;
79361;SDS011;68830;47.566;19.012;2023-12-28T00:27:48;14.52;;;9.43;;
79361;SDS011;68830;47.566;19.012;2023-12-28T00:30:53;15.95;;;10.35;;
79361;SDS011;68830;47.566;19.012;2023-12-28T00:33:57;15.13;;;9.27;;
79361;SDS011;68830;47.566;19.012;2023-12-28T00:36:59;13.02;;;8.68;;
79361;SDS011;68830;47.566;19.012;2023-12-28T00:40:01;13.95;;;9.68;;
79361;SDS011;68830;47.566;19.012;2023-12-28T00:43:04;12.23;;;9.05;;
79361;SDS011;68830;47.566;19.012;2023-12-28T00:46:06;14.13;;;8.93;;
79361;SDS011;68830;47.566;19.012;2023-12-28T00:49:11;11.57;;;8.63;;
79361;SDS011;68830;47.566;19.012;2023-12-28T00:52:13;12.18;;;8.48;;
79361;SDS011;68830;47.566;19.012;2023-12-28T00:55:15;13.88;;;8.13;;
79361;SDS011;68830;47.566;19.012;2023-12-28T00:58:17;12.35;;;9.20;;
79361;SDS011;68830;47.566;19.012;2023-12-28T01:01:19;16.50;;;8.85;;
79361;SDS011;68830;47.566;19.012;2023-12-28T01:04:23;13.02;;;9.10;;
79361;SDS011;68830;47.566;19.012;2023-12-28T01:07:25;13.30;;;7.95;;
79361;SDS011;68830;47.566;19.012;2023-12-28T01:10:27;17.13;;;10.23;;
79361;SDS011;68830;47.566;19.012;2023-12-28T01:13:29;14.20;;;9.52;;
79361;SDS011;68830;47.566;19.012;2023-12-28T01:16:32;12.88;;;9.02;;
79361;SDS011;68830;47.566;19.012;2023-12-28T01:19:36;11.85;;;8.30;;
79361;SDS011;68830;47.566;19.012;2023-12-28T01:22:38;15.82;;;10.32;;
79361;SDS011;68830;47.566;19.012;2023-12-28T01:25:40;13.77;;;9.10;;
79361;SDS011;68830;47.566;19.012;2023-12-28T01:28:42;21.05;;;12.35;;
79361;SDS011;68830;47.566;19.012;2023-12-28T01:31:44;23.10;;;12.18;;
79361;SDS011;68830;47.566;19.012;2023-12-28T01:34:47;22.90;;;13.00;;
79361;SDS011;68830;47.566;19.012;2023-12-28T01:37:50;19.70;;;12.07;;
79361;SDS011;68830;47.566;19.012;2023-12-28T01:40:52;15.93;;;11.13;;
79361;SDS011;68830;47.566;19.012;2023-12-28T01:43:57;22.35;;;13.05;;
79361;SDS011;68830;47.566;19.012;2023-12-28T01:46:59;18.23;;;10.75;;
79361;SDS011;68830;47.566;19.012;2023-12-28T01:50:03;15.50;;;10.43;;
79361;SDS011;68830;47.566;19.012;2023-12-28T01:53:07;15.40;;;10.55;;
79361;SDS011;68830;47.566;19.012;2023-12-28T01:56:10;12.77;;;8.95;;
79361;SDS011;68830;47.566;19.012;2023-12-28T01:59:12;12.18;;;8.98;;
79361;SDS011;68830;47.566;19.012;2023-12-28T02:02:15;11.93;;;9.57;;
79361;SDS011;68830;47.566;19.012;2023-12-28T02:05:19;15.25;;;9.35;;
79361;SDS011;68830;47.566;19.012;2023-12-28T02:08:22;12.40;;;8.32;;
79361;SDS011;68830;47.566;19.012;2023-12-28T02:11:25;13.93;;;9.15;;
79361;SDS011;68830;47.566;19.012;2023-12-28T02:14:27;12.77;;;8.77;;
79361;SDS011;68830;47.566;19.012;2023-12-28T02:17:30;10.80;;;9.10;;
79361;SDS011;68830;47.566;19.012;2023-12-28T02:20:39;12.55;;;9.20;;
79361;SDS011;68830;47.566;19.012;2023-12-28T02:23:45;13.93;;;8.50;;
79361;SDS011;68830;47.566;19.012;2023-12-28T02:26:49;11.02;;;8.45;;
79361;SDS011;68830;47.566;19.012;2023-12-28T02:29:51;15.65;;;10.27;;
79361;SDS011;68830;47.566;19.012;2023-12-28T02:32:56;12.75;;;9.15;;
79361;SDS011;68830;47.566;19.012;2023-12-28T02:36:10;16.25;;;10.75;;
79361;SDS011;68830;47.566;19.012;2023-12-28T02:39:14;14.52;;;10.75;;
79361;SDS011;68830;47.566;19.012;2023-12-28T02:42:19;17.83;;;11.00;;
79361;SDS011;68830;47.566;19.012;2023-12-28T02:45:21;16.63;;;10.85;;
79361;SDS011;68830;47.566;19.012;2023-12-28T02:48:24;15.15;;;10.50;;
79361;SDS011;68830;47.566;19.012;2023-12-28T02:51:27;14.93;;;10.18;;
79361;SDS011;68830;47.566;19.012;2023-12-28T02:54:29;13.63;;;10.35;;
79361;SDS011;68830;47.566;19.012;2023-12-28T02:57:33;13.95;;;9.15;;
79361;SDS011;68830;47.566;19.012;2023-12-28T03:00:38;15.88;;;9.52;;
79361;SDS011;68830;47.566;19.012;2023-12-28T03:03:41;13.95;;;10.23;;
79361;SDS011;68830;47.566;19.012;2023-12-28T03:06:43;17.33;;;9.02;;
79361;SDS011;68830;47.566;19.012;2023-12-28T03:09:48;13.77;;;9.50;;
79361;SDS011;68830;47.566;19.012;2023-12-28T03:12:51;11.02;;;8.65;;
79361;SDS011;68830;47.566;19.012;2023-12-28T03:15:54;13.52;;;9.73;;
79361;SDS011;68830;47.566;19.012;2023-12-28T03:18:56;13.13;;;8.50;;
79361;SDS011;68830;47.566;19.012;2023-12-28T03:21:58;13.05;;;8.15;;
79361;SDS011;68830;47.566;19.012;2023-12-28T03:25:02;13.25;;;9.00;;
79361;SDS011;68830;47.566;19.012;2023-12-28T03:28:06;10.02;;;7.95;;
79361;SDS011;68830;47.566;19.012;2023-12-28T03:31:08;13.38;;;10.35;;
79361;SDS011;68830;47.566;19.012;2023-12-28T03:34:10;11.02;;;9.57;;
79361;SDS011;68830;47.566;19.012;2023-12-28T03:37:12;16.48;;;9.05;;
79361;SDS011;68830;47.566;19.012;2023-12-28T03:40:14;14.52;;;9.30;;
79361;SDS011;68830;47.566;19.012;2023-12-28T03:43:21;15.18;;;8.45;;
79361;SDS011;68830;47.566;19.012;2023-12-28T03:46:23;11.93;;;8.45;;
79361;SDS011;68830;47.566;19.012;2023-12-28T03:49:25;12.75;;;8.70;;
79361;SDS011;68830;47.566;19.012;2023-12-28T03:52:27;12.98;;;9.60;;
79361;SDS011;68830;47.566;19.012;2023-12-28T03:55:31;12.95;;;10.00;;
79361;SDS011;68830;47.566;19.012;2023-12-28T03:58:35;13.55;;;9.50;;
79361;SDS011;68830;47.566;19.012;2023-12-28T04:01:37;17.38;;;10.38;;
79361;SDS011;68830;47.566;19.012;2023-12-28T04:04:39;25.30;;;9.82;;
79361;SDS011;68830;47.566;19.012;2023-12-28T04:07:41;15.25;;;9.43;;
79361;SDS011;68830;47.566;19.012;2023-12-28T04:10:44;14.00;;;9.38;;
79361;SDS011;68830;47.566;19.012;2023-12-28T04:13:48;18.85;;;10.63;;
79361;SDS011;68830;47.566;19.012;2023-12-28T04:16:50;12.68;;;7.97;;
79361;SDS011;68830;47.566;19.012;2023-12-28T04:19:52;15.88;;;9.35;;
79361;SDS011;68830;47.566;19.012;2023-12-28T04:22:56;14.45;;;9.85;;
79361;SDS011;68830;47.566;19.012;2023-12-28T04:26:02;12.45;;;8.52;;
79361;SDS011;68830;47.566;19.012;2023-12-28T04:29:12;10.43;;;8.32;;
79361;SDS011;68830;47.566;19.012;2023-12-28T04:32:22;16.90;;;9.30;;
79361;SDS011;68830;47.566;19.012;2023-12-28T04:35:30;15.05;;;11.32;;
79361;SDS011;68830;47.566;19.012;2023-12-28T04:38:38;13.13;;;9.32;;
79361;SDS011;68830;47.566;19.012;2023-12-28T04:41:40;15.38;;;9.73;;
79361;SDS011;68830;47.566;19.012;2023-12-28T04:44:44;12.73;;;9.02;;
79361;SDS011;68830;47.566;19.012;2023-12-28T04:47:46;11.02;;;9.25;;
79361;SDS011;68830;47.566;19.012;2023-12-28T04:50:48;14.13;;;10.20;;
79361;SDS011;68830;47.566;19.012;2023-12-28T04:53:52;12.88;;;8.77;;
79361;SDS011;68830;47.566;19.012;2023-12-28T04:56:54;12.80;;;8.90;;
79361;SDS011;68830;47.566;19.012;2023-12-28T04:59:57;15.73;;;9.73;;
79361;SDS011;68830;47.566;19.012;2023-12-28T05:02:59;13.25;;;10.85;;
79361;SDS011;68830;47.566;19.012;2023-12-28T05:06:01;19.02;;;11.50;;
79361;SDS011;68830;47.566;19.012;2023-12-28T05:09:04;12.88;;;9.80;;
79361;SDS011;68830;47.566;19.012;2023-12-28T05:12:06;11.63;;;8.60;;
79361;SDS011;68830;47.566;19.012;2023-12-28T05:15:09;13.85;;;8.57;;
79361;SDS011;68830;47.566;19.012;2023-12-28T05:18:11;19.13;;;10.75;;
79361;SDS011;68830;47.566;19.012;2023-12-28T05:21:13;13.25;;;9.75;;
79361;SDS011;68830;47.566;19.012;2023-12-28T05:24:16;11.77;;;9.27;;
79361;SDS011;68830;47.566;19.012;2023-12-28T05:27:18;16.02;;;11.23;;
79361;SDS011;68830;47.566;19.012;2023-12-28T05:30:21;14.95;;;9.77;;
79361;SDS011;68830;47.566;19.012;2023-12-28T05:33:23;14.80;;;10.65;;
79361;SDS011;68830;47.566;19.012;2023-12-28T05:36:25;17.20;;;9.10;;
79361;SDS011;68830;47.566;19.012;2023-12-28T05:39:27;14.13;;;10.25;;
79361;SDS011;68830;47.566;19.012;2023-12-28T05:42:29;17.88;;;12.15;;
79361;SDS011;68830;47.566;19.012;2023-12-28T05:45:33;14.18;;;9.60;;
79361;SDS011;68830;47.566;19.012;2023-12-28T05:48:35;17.35;;;11.20;;
79361;SDS011;68830;47.566;19.012;2023-12-28T05:51:37;13.13;;;9.35;;
79361;SDS011;68830;47.566;19.012;2023-12-28T05:54:41;17.60;;;10.27;;
79361;SDS011;68830;47.566;19.012;2023-12-28T05:57:45;16.02;;;9.40;;
79361;SDS011;68830;47.566;19.012;2023-12-28T06:00:48;13.15;;;9.10;;
79361;SDS011;68830;47.566;19.012;2023-12-28T06:03:50;15.75;;;10.00;;
79361;SDS011;68830;47.566;19.012;2023-12-28T06:06:54;15.25;;;9.15;;
79361;SDS011;68830;47.566;19.012;2023-12-28T06:09:56;14.18;;;9.88;;
79361;SDS011;68830;47.566;19.012;2023-12-28T06:12:58;12.18;;;9.73;;
79361;SDS011;68830;47.566;19.012;2023-12-28T06:16:01;13.07;;;9.15;;
79361;SDS011;68830;47.566;19.012;2023-12-28T06:19:04;13.25;;;8.38;;
79361;SDS011;68830;47.566;19.012;2023-12-28T06:22:07;14.02;;;9.80;;
79361;SDS011;68830;47.566;19.012;2023-12-28T06:25:11;18.17;;;9.65;;
79361;SDS011;68830;47.566;19.012;2023-12-28T06:28:13;14.10;;;10.00;;
79361;SDS011;68830;47.566;19.012;2023-12-28T06:31:16;15.85;;;10.38;;
79361;SDS011;68830;47.566;19.012;2023-12-28T06:34:19;15.73;;;9.52;;
79361;SDS011;68830;47.566;19.012;2023-12-28T06:37:22;15.40;;;9.85;;
79361;SDS011;68830;47.566;19.012;2023-12-28T06:40:24;15.57;;;9.52;;
79361;SDS011;68830;47.566;19.012;2023-12-28T06:43:26;14.45;;;9.30;;
79361;SDS011;68830;47.566;19.012;2023-12-28T06:46:30;13.00;;;9.82;;
79361;SDS011;68830;47.566;19.012;2023-12-28T06:49:32;15.82;;;9.88;;
79361;SDS011;68830;47.566;19.012;2023-12-28T06:52:34;16.55;;;9.52;;
79361;SDS011;68830;47.566;19.012;2023-12-28T06:55:36;12.30;;;8.75;;
79361;SDS011;68830;47.566;19.012;2023-12-28T06:58:38;16.58;;;9.32;;
79361;SDS011;68830;47.566;19.012;2023-12-28T07:01:42;16.08;;;14.23;;
79361;SDS011;68830;47.566;19.012;2023-12-28T07:04:45;21.65;;;18.88;;
79361;SDS011;68830;47.566;19.012;2023-12-28T07:07:48;46.58;;;37.50;;
79361;SDS011;68830;47.566;19.012;2023-12-28T07:10:50;33.03;;;27.38;;
79361;SDS011;68830;47.566;19.012;2023-12-28T07:13:52;26.75;;;22.92;;
79361;SDS011;68830;47.566;19.012;2023-12-28T07:16:56;35.22;;;30.10;;
79361;SDS011;68830;47.566;19.012;2023-12-28T07:19:58;35.95;;;30.73;;
79361;SDS011;68830;47.566;19.012;2023-12-28T07:23:00;31.92;;;27.40;;
79361;SDS011;68830;47.566;19.012;2023-12-28T07:26:04;32.58;;;26.27;;
79361;SDS011;68830;47.566;19.012;2023-12-28T07:29:06;27.92;;;23.05;;
79361;SDS011;68830;47.566;19.012;2023-12-28T07:32:10;16.58;;;12.40;;
79361;SDS011;68830;47.566;19.012;2023-12-28T07:35:12;17.20;;;11.25;;
79361;SDS011;68830;47.566;19.012;2023-12-28T07:38:14;21.10;;;12.13;;
79361;SDS011;68830;47.566;19.012;2023-12-28T07:41:16;13.73;;;10.20;;
79361;SDS011;68830;47.566;19.012;2023-12-28T07:44:19;15.32;;;10.52;;
79361;SDS011;68830;47.566;19.012;2023-12-28T07:47:23;16.25;;;10.55;;
79361;SDS011;68830;47.566;19.012;2023-12-28T07:50:25;18.67;;;10.18;;
79361;SDS011;68830;47.566;19.012;2023-12-28T07:53:27;12.82;;;9.85;;
79361;SDS011;68830;47.566;19.012;2023-12-28T07:56:29;18.27;;;10.82;;
79361;SDS011;68830;47.566;19.012;2023-12-28T07:59:31;14.07;;;9.90;;
79361;SDS011;68830;47.566;19.012;2023-12-28T08:02:34;21.95;;;15.07;;
79361;SDS011;68830;47.566;19.012;2023-12-28T08:05:36;20.63;;;16.52;;
79361;SDS011;68830;47.566;19.012;2023-12-28T08:08:39;22.70;;;17.23;;
79361;SDS011;68830;47.566;19.012;2023-12-28T08:11:42;21.58;;;17.85;;
79361;SDS011;68830;47.566;19.012;2023-12-28T08:14:44;20.95;;;18.83;;
79361;SDS011;68830;47.566;19.012;2023-12-28T08:17:48;28.63;;;19.20;;
79361;SDS011;68830;47.566;19.012;2023-12-28T08:20:50;23.65;;;18.13;;
79361;SDS011;68830;47.566;19.012;2023-12-28T08:23:53;25.70;;;20.88;;
79361;SDS011;68830;47.566;19.012;2023-12-28T08:26:56;25.50;;;21.27;;
79361;SDS011;68830;47.566;19.012;2023-12-28T08:30:01;21.55;;;19.08;;
79361;SDS011;68830;47.566;19.012;2023-12-28T08:33:05;25.17;;;19.25;;
79361;SDS011;68830;47.566;19.012;2023-12-28T08:36:07;20.42;;;18.17;;
79361;SDS011;68830;47.566;19.012;2023-12-28T08:39:11;28.17;;;20.15;;
79361;SDS011;68830;47.566;19.012;2023-12-28T08:42:13;27.55;;;19.55;;
79361;SDS011;68830;47.566;19.012;2023-12-28T08:45:15;24.38;;;20.45;;
79361;SDS011;68830;47.566;19.012;2023-12-28T08:48:18;22.60;;;20.08;;
79361;SDS011;68830;47.566;19.012;2023-12-28T08:51:21;21.52;;;18.35;;
79361;SDS011;68830;47.566;19.012;2023-12-28T08:54:23;25.23;;;17.50;;
79361;SDS011;68830;47.566;19.012;2023-12-28T08:57:26;19.02;;;16.27;;
79361;SDS011;68830;47.566;19.012;2023-12-28T09:00:42;20.90;;;17.67;;
79361;SDS011;68830;47.566;19.012;2023-12-28T09:03:48;21.95;;;17.05;;
79361;SDS011;68830;47.566;19.012;2023-12-28T09:06:54;22.65;;;16.83;;
79361;SDS011;68830;47.566;19.012;2023-12-28T09:09:56;22.40;;;17.92;;
79361;SDS011;68830;47.566;19.012;2023-12-28T09:12:58;17.90;;;15.88;;
79361;SDS011;68830;47.566;19.012;2023-12-28T09:16:00;22.75;;;17.90;;
79361;SDS011;68830;47.566;19.012;2023-12-28T09:19:08;20.38;;;16.88;;
79361;SDS011;68830;47.566;19.012;2023-12-28T09:22:10;24.13;;;17.17;;
79361;SDS011;68830;47.566;19.012;2023-12-28T09:25:12;22.80;;;16.40;;
79361;SDS011;68830;47.566;19.012;2023-12-28T09:28:14;19.98;;;16.55;;
79361;SDS011;68830;47.566;19.012;2023-12-28T09:31:16;24.10;;;15.63;;
79361;SDS011;68830;47.566;19.012;2023-12-28T09:34:19;19.98;;;14.98;;
79361;SDS011;68830;47.566;19.012;2023-12-28T09:37:21;17.65;;;14.73;;
79361;SDS011;68830;47.566;19.012;2023-12-28T09:40:23;21.55;;;15.85;;
79361;SDS011;68830;47.566;19.012;2023-12-28T09:43:26;20.00;;;15.70;;
79361;SDS011;68830;47.566;19.012;2023-12-28T09:46:40;20.10;;;15.55;;
79361;SDS011;68830;47.566;19.012;2023-12-28T09:49:45;22.35;;;16.73;;
79361;SDS011;68830;47.566;19.012;2023-12-28T09:52:49;18.38;;;16.42;;
79361;SDS011;68830;47.566;19.012;2023-12-28T09:55:51;16.20;;;14.10;;
79361;SDS011;68830;47.566;19.012;2023-12-28T09:58:54;22.38;;;17.30;;
79361;SDS011;68830;47.566;19.012;2023-12-28T10:01:59;18.33;;;15.57;;
79361;SDS011;68830;47.566;19.012;2023-12-28T10:05:07;21.55;;;17.08;;
79361;SDS011;68830;47.566;19.012;2023-12-28T10:08:15;18.60;;;16.60;;
79361;SDS011;68830;47.566;19.012;2023-12-28T10:11:41;25.45;;;18.70;;
79361;SDS011;68830;47.566;19.012;2023-12-28T10:14:45;25.30;;;17.15;;
79361;SDS011;68830;47.566;19.012;2023-12-28T10:17:48;19.98;;;17.73;;
79361;SDS011;68830;47.566;19.012;2023-12-28T10:20:52;21.83;;;17.65;;
79361;SDS011;68830;47.566;19.012;2023-12-28T10:23:55;19.75;;;17.73;;
79361;SDS011;68830;47.566;19.012;2023-12-28T10:26:57;24.42;;;18.98;;
79361;SDS011;68830;47.566;19.012;2023-12-28T10:29:59;23.35;;;18.35;;
79361;SDS011;68830;47.566;19.012;2023-12-28T10:33:04;18.48;;;16.40;;
79361;SDS011;68830;47.566;19.012;2023-12-28T10:36:09;20.00;;;16.55;;
79361;SDS011;68830;47.566;19.012;2023-12-28T10:39:12;21.70;;;17.05;;
79361;SDS011;68830;47.566;19.012;2023-12-28T10:42:22;20.48;;;17.00;;
79361;SDS011;68830;47.566;19.012;2023-12-28T10:45:31;23.60;;;17.77;;
79361;SDS011;68830;47.566;19.012;2023-12-28T10:48:36;22.33;;;19.13;;
79361;SDS011;68830;47.566;19.012;2023-12-28T10:51:44;23.80;;;19.27;;
79361;SDS011;68830;47.566;19.012;2023-12-28T10:54:53;21.75;;;17.77;;
79361;SDS011;68830;47.566;19.012;2023-12-28T10:58:05;20.48;;;16.30;;
79361;SDS011;68830;47.566;19.012;2023-12-28T11:01:13;22.83;;;17.92;;
79361;SDS011;68830;47.566;19.012;2023-12-28T11:04:23;20.40;;;16.98;;
79361;SDS011;68830;47.566;19.012;2023-12-28T11:07:31;21.02;;;17.65;;
79361;SDS011;68830;47.566;19.012;2023-12-28T11:10:34;19.35;;;15.85;;
79361;SDS011;68830;47.566;19.012;2023-12-28T11:13:38;22.08;;;16.85;;
79361;SDS011;68830;47.566;19.012;2023-12-28T11:16:41;24.35;;;16.90;;
79361;SDS011;68830;47.566;19.012;2023-12-28T11:19:44;23.13;;;15.95;;
79361;SDS011;68830;47.566;19.012;2023-12-28T11:22:49;21.88;;;17.75;;
79361;SDS011;68830;47.566;19.012;2023-12-28T11:25:52;18.58;;;16.58;;
79361;SDS011;68830;47.566;19.012;2023-12-28T11:29:00;21.92;;;16.52;;
79361;SDS011;68830;47.566;19.012;2023-12-28T11:32:02;24.10;;;17.63;;
79361;SDS011;68830;47.566;19.012;2023-12-28T11:35:06;20.00;;;16.70;;
79361;SDS011;68830;47.566;19.012;2023-12-28T11:38:12;21.38;;;16.13;;
79361;SDS011;68830;47.566;19.012;2023-12-28T11:41:19;20.13;;;16.02;;
79361;SDS011;68830;47.566;19.012;2023-12-28T11:44:25;20.88;;;17.98;;
79361;SDS011;68830;47.566;19.012;2023-12-28T11:47:27;19.63;;;17.65;;
79361;SDS011;68830;47.566;19.012;2023-12-28T11:50:29;19.65;;;17.42;;
79361;SDS011;68830;47.566;19.012;2023-12-28T11:53:32;22.75;;;20.30;;
79361;SDS011;68830;47.566;19.012;2023-12-28T11:56:34;23.20;;;18.55;;
79361;SDS011;68830;47.566;19.012;2023-12-28T11:59:36;18.23;;;16.40;;
79361;SDS011;68830;47.566;19.012;2023-12-28T12:02:42;22.55;;;18.02;;
79361;SDS011;68830;47.566;19.012;2023-12-28T12:05:45;27.98;;;17.70;;
79361;SDS011;68830;47.566;19.012;2023-12-28T12:08:49;22.80;;;16.02;;
79361;SDS011;68830;47.566;19.012;2023-12-28T12:11:51;22.33;;;17.88;;
79361;SDS011;68830;47.566;19.012;2023-12-28T12:14:54;20.58;;;18.38;;
79361;SDS011;68830;47.566;19.012;2023-12-28T12:17:58;20.45;;;16.65;;
79361;SDS011;68830;47.566;19.012;2023-12-28T12:21:00;22.17;;;17.52;;
79361;SDS011;68830;47.566;19.012;2023-12-28T12:24:04;22.08;;;17.55;;
79361;SDS011;68830;47.566;19.012;2023-12-28T12:27:06;26.63;;;17.42;;
79361;SDS011;68830;47.566;19.012;2023-12-28T12:30:08;20.15;;;17.52;;
79361;SDS011;68830;47.566;19.012;2023-12-28T12:33:10;23.98;;;17.80;;
79361;SDS011;68830;47.566;19.012;2023-12-28T12:36:12;21.13;;;17.58;;
79361;SDS011;68830;47.566;19.012;2023-12-28T12:39:15;22.77;;;18.25;;
79361;SDS011;68830;47.566;19.012;2023-12-28T12:42:17;24.90;;;17.33;;
79361;SDS011;68830;47.566;19.012;2023-12-28T12:45:21;20.63;;;17.52;;
79361;SDS011;68830;47.566;19.012;2023-12-28T12:48:23;22.13;;;18.23;;
79361;SDS011;68830;47.566;19.012;2023-12-28T12:51:26;24.80;;;18.90;;
79361;SDS011;68830;47.566;19.012;2023-12-28T12:54:30;19.58;;;17.55;;
79361;SDS011;68830;47.566;19.012;2023-12-28T12:57:32;22.98;;;17.35;;
79361;SDS011;68830;47.566;19.012;2023-12-28T13:00:35;23.90;;;18.92;;
79361;SDS011;68830;47.566;19.012;2023-12-28T13:03:37;24.50;;;18.70;;
79361;SDS011;68830;47.566;19.012;2023-12-28T13:06:39;25.23;;;17.10;;
79361;SDS011;68830;47.566;19.012;2023-12-28T13:09:44;21.58;;;17.58;;
79361;SDS011;68830;47.566;19.012;2023-12-28T13:12:46;23.48;;;19.27;;
79361;SDS011;68830;47.566;19.012;2023-12-28T13:15:48;23.67;;;18.30;;
79361;SDS011;68830;47.566;19.012;2023-12-28T13:18:51;21.23;;;18.23;;
79361;SDS011;68830;47.566;19.012;2023-12-28T13:21:53;21.85;;;19.50;;
79361;SDS011;68830;47.566;19.012;2023-12-28T13:24:57;21.98;;;17.02;;
79361;SDS011;68830;47.566;19.012;2023-12-28T13:27:59;23.67;;;17.35;;
79361;SDS011;68830;47.566;19.012;2023-12-28T13:31:02;22.52;;;18.02;;
79361;SDS011;68830;47.566;19.012;2023-12-28T13:34:04;20.77;;;16.52;;
79361;SDS011;68830;47.566;19.012;2023-12-28T13:37:07;24.67;;;18.38;;
79361;SDS011;68830;47.566;19.012;2023-12-28T13:40:11;23.02;;;16.85;;
79361;SDS011;68830;47.566;19.012;2023-12-28T13:43:13;21.67;;;18.17;;
79361;SDS011;68830;47.566;19.012;2023-12-28T13:46:15;25.52;;;18.90;;
79361;SDS011;68830;47.566;19.012;2023-12-28T13:49:17;28.10;;;19.70;;
79361;SDS011;68830;47.566;19.012;2023-12-28T13:52:19;21.02;;;18.58;;
79361;SDS011;68830;47.566;19.012;2023-12-28T13:55:24;22.00;;;17.55;;
79361;SDS011;68830;47.566;19.012;2023-12-28T13:58:26;20.50;;;17.17;;
79361;SDS011;68830;47.566;19.012;2023-12-28T14:01:28;22.45;;;17.83;;
79361;SDS011;68830;47.566;19.012;2023-12-28T14:04:30;24.88;;;18.40;;
79361;SDS011;68830;47.566;19.012;2023-12-28T14:07:32;23.98;;;20.38;;
79361;SDS011;68830;47.566;19.012;2023-12-28T14:10:36;21.33;;;18.55;;
79361;SDS011;68830;47.566;19.012;2023-12-28T14:13:40;22.33;;;18.67;;
79361;SDS011;68830;47.566;19.012;2023-12-28T14:16:43;21.92;;;19.35;;
79361;SDS011;68830;47.566;19.012;2023-12-28T14:19:47;19.20;;;17.08;;
79361;SDS011;68830;47.566;19.012;2023-12-28T14:22:50;26.70;;;18.10;;
79361;SDS011;68830;47.566;19.012;2023-12-28T14:25:54;21.25;;;17.48;;
79361;SDS011;68830;47.566;19.012;2023-12-28T14:28:57;18.88;;;16.80;;
79361;SDS011;68830;47.566;19.012;2023-12-28T14:32:00;23.33;;;17.42;;
79361;SDS011;68830;47.566;19.012;2023-12-28T14:35:04;21.77;;;16.90;;
79361;SDS011;68830;47.566;19.012;2023-12-28T14:38:06;22.52;;;17.15;;
79361;SDS011;68830;47.566;19.012;2023-12-28T14:41:10;21.35;;;17.52;;
79361;SDS011;68830;47.566;19.012;2023-12-28T14:44:13;18.40;;;16.42;;
79361;SDS011;68830;47.566;19.012;2023-12-28T14:47:15;21.73;;;17.65;;
79361;SDS011;68830;47.566;19.012;2023-12-28T14:50:17;26.48;;;16.88;;
79361;SDS011;68830;47.566;19.012;2023-12-28T14:53:19;22.65;;;17.67;;
79361;SDS011;68830;47.566;19.012;2023-12-28T14:56:23;20.67;;;17.63;;
79361;SDS011;68830;47.566;19.012;2023-12-28T14:59:26;24.52;;;16.20;;
79361;SDS011;68830;47.566;19.012;2023-12-28T15:02:28;15.80;;;14.07;;
79361;SDS011;68830;47.566;19.012;2023-12-28T15:05:31;22.33;;;16.77;;
79361;SDS011;68830;47.566;19.012;2023-12-28T15:08:34;19.67;;;14.70;;
79361;SDS011;68830;47.566;19.012;2023-12-28T15:11:38;20.33;;;15.60;;
79361;SDS011;68830;47.566;19.012;2023-12-28T15:14:49;17.65;;;15.00;;
79361;SDS011;68830;47.566;19.012;2023-12-28T15:17:52;20.83;;;14.77;;
79361;SDS011;68830;47.566;19.012;2023-12-28T15:20:55;18.48;;;15.60;;
79361;SDS011;68830;47.566;19.012;2023-12-28T15:23:58;20.45;;;14.65;;
79361;SDS011;68830;47.566;19.012;2023-12-28T15:27:04;19.02;;;15.45;;
79361;SDS011;68830;47.566;19.012;2023-12-28T15:30:08;20.17;;;16.20;;
79361;SDS011;68830;47.566;19.012;2023-12-28T15:33:11;19.83;;;15.88;;
79361;SDS011;68830;47.566;19.012;2023-12-28T15:36:13;19.40;;;15.05;;
79361;SDS011;68830;47.566;19.012;2023-12-28T15:39:15;17.23;;;15.43;;
79361;SDS011;68830;47.566;19.012;2023-12-28T15:42:18;25.25;;;15.98;;
79361;SDS011;68830;47.566;19.012;2023-12-28T15:45:21;21.60;;;16.17;;
79361;SDS011;68830;47.566;19.012;2023-12-28T15:48:23;19.67;;;16.30;;
79361;SDS011;68830;47.566;19.012;2023-12-28T15:51:27;25.60;;;17.95;;
79361;SDS011;68830;47.566;19.012;2023-12-28T15:54:29;19.00;;;16.60;;
79361;SDS011;68830;47.566;19.012;2023-12-28T15:57:33;20.35;;;16.02;;
79361;SDS011;68830;47.566;19.012;2023-12-28T16:00:35;20.67;;;17.67;;
79361;SDS011;68830;47.566;19.012;2023-12-28T16:03:37;28.27;;;19.92;;
79361;SDS011;68830;47.566;19.012;2023-12-28T16:06:40;23.48;;;18.67;;
79361;SDS011;68830;47.566;19.012;2023-12-28T16:09:42;28.55;;;19.83;;
79361;SDS011;68830;47.566;19.012;2023-12-28T16:12:45;23.73;;;19.73;;
79361;SDS011;68830;47.566;19.012;2023-12-28T16:15:47;23.90;;;20.15;;
79361;SDS011;68830;47.566;19.012;2023-12-28T16:18:51;22.42;;;18.42;;
79361;SDS011;68830;47.566;19.012;2023-12-28T16:21:54;22.15;;;17.77;;
79361;SDS011;68830;47.566;19.012;2023-12-28T16:24:56;21.30;;;18.35;;
79361;SDS011;68830;47.566;19.012;2023-12-28T16:28:04;20.83;;;16.10;;
79361;SDS011;68830;47.566;19.012;2023-12-28T16:31:10;28.08;;;20.35;;
79361;SDS011;68830;47.566;19.012;2023-12-28T16:34:13;27.10;;;21.25;;
79361;SDS011;68830;47.566;19.012;2023-12-28T16:37:18;28.15;;;19.88;;
79361;SDS011;68830;47.566;19.012;2023-12-28T16:40:20;24.02;;;20.45;;
79361;SDS011;68830;47.566;19.012;2023-12-28T16:43:23;25.73;;;22.45;;
79361;SDS011;68830;47.566;19.012;2023-12-28T16:46:32;25.05;;;21.00;;
79361;SDS011;68830;47.566;19.012;2023-12-28T16:49:34;29.63;;;23.48;;
79361;SDS011;68830;47.566;19.012;2023-12-28T16:52:37;31.48;;;24.98;;
79361;SDS011;68830;47.566;19.012;2023-12-28T16:55:39;32.95;;;26.35;;
79361;SDS011;68830;47.566;19.012;2023-12-28T16:58:42;36.67;;;28.52;;
79361;SDS011;68830;47.566;19.012;2023-12-28T17:01:44;38.20;;;29.98;;
79361;SDS011;68830;47.566;19.012;2023-12-28T17:04:48;35.42;;;31.17;;
79361;SDS011;68830;47.566;19.012;2023-12-28T17:07:51;35.15;;;29.27;;
79361;SDS011;68830;47.566;19.012;2023-12-28T17:10:54;37.08;;;27.45;;
79361;SDS011;68830;47.566;19.012;2023-12-28T17:13:58;34.75;;;28.38;;
79361;SDS011;68830;47.566;19.012;2023-12-28T17:17:01;37.10;;;25.10;;
79361;SDS011;68830;47.566;19.012;2023-12-28T17:20:04;27.50;;;23.35;;
79361;SDS011;68830;47.566;19.012;2023-12-28T17:23:08;29.55;;;22.20;;
79361;SDS011;68830;47.566;19.012;2023-12-28T17:26:21;28.35;;;21.83;;
79361;SDS011;68830;47.566;19.012;2023-12-28T17:29:28;31.05;;;22.75;;
79361;SDS011;68830;47.566;19.012;2023-12-28T17:32:32;27.17;;;20.08;;
79361;SDS011;68830;47.566;19.012;2023-12-28T17:35:38;91.97;;;55.22;;
79361;SDS011;68830;47.566;19.012;2023-12-28T17:38:40;166.60;;;96.00;;
79361;SDS011;68830;47.566;19.012;2023-12-28T17:41:45;270.42;;;158.27;;